sensor_id;sensor_type;location;lat;lon;timestamp;temperature;humidity
5346;DHT22;2695;49.444;11.054;2023-01-20T00:01:24;2.90;99.90
5346;DHT22;2695;49.444;11.054;2023-01-20T00:03:54;2.90;99.90
5346;DHT22;2695;49.444;11.054;2023-01-20T00:06:24;2.90;99.90
5346;DHT22;2695;49.444;11.054;2023-01-20T00:09:13;3.00;99.90
5346;DHT22;2695;49.444;11.054;2023-01-20T00:11:42;3.00;99.90
5346;DHT22;2695;49.444;11.054;2023-01-20T00:14:11;3.00;99.90
5346;DHT22;2695;49.444;11.054;2023-01-20T00:16:40;3.00;99.90
5346;DHT22;2695;49.444;11.054;2023-01-20T00:19:08;3.00;99.90
5346;DHT22;2695;49.444;11.054;2023-01-20T00:21:37;3.00;99.90
5346;DHT22;2695;49.444;11.054;2023-01-20T00:24:06;3.00;99.90
5346;DHT22;2695;49.444;11.054;2023-01-20T00:26:34;2.90;99.90
5346;DHT22;2695;49.444;11.054;2023-01-20T00:29:03;2.90;99.90
5346;DHT22;2695;49.444;11.054;2023-01-20T00:31:31;3.00;99.90
5346;DHT22;2695;49.444;11.054;2023-01-20T00:34:00;3.00;99.90
5346;DHT22;2695;49.444;11.054;2023-01-20T00:36:30;2.90;99.90
5346;DHT22;2695;49.444;11.054;2023-01-20T00:38:59;2.90;99.90
5346;DHT22;2695;49.444;11.054;2023-01-20T00:41:28;2.90;99.90
5346;DHT22;2695;49.444;11.054;2023-01-20T00:43:55;2.90;99.90
5346;DHT22;2695;49.444;11.054;2023-01-20T00:46:25;2.80;99.90
5346;DHT22;2695;49.444;11.054;2023-01-20T00:48:53;2.80;99.90
5346;DHT22;2695;49.444;11.054;2023-01-20T00:51:21;2.80;99.90
5346;DHT22;2695;49.444;11.054;2023-01-20T00:53:49;2.90;99.90
5346;DHT22;2695;49.444;11.054;2023-01-20T00:56:17;2.90;99.90
5346;DHT22;2695;49.444;11.054;2023-01-20T00:58:45;2.90;99.90
5346;DHT22;2695;49.444;11.054;2023-01-20T01:01:13;2.90;99.90
5346;DHT22;2695;49.444;11.054;2023-01-20T01:03:43;2.90;99.90
5346;DHT22;2695;49.444;11.054;2023-01-20T01:06:13;2.90;99.90
5346;DHT22;2695;49.444;11.054;2023-01-20T01:08:42;2.80;99.90
5346;DHT22;2695;49.444;11.054;2023-01-20T01:11:11;2.90;99.90
5346;DHT22;2695;49.444;11.054;2023-01-20T01:13:39;2.90;99.90
5346;DHT22;2695;49.444;11.054;2023-01-20T01:16:10;2.90;99.90
5346;DHT22;2695;49.444;11.054;2023-01-20T01:18:39;2.90;99.90
5346;DHT22;2695;49.444;11.054;2023-01-20T01:21:10;2.90;99.90
5346;DHT22;2695;49.444;11.054;2023-01-20T01:23:38;2.80;99.90
5346;DHT22;2695;49.444;11.054;2023-01-20T01:26:06;2.90;99.90
5346;DHT22;2695;49.444;11.054;2023-01-20T01:28:34;2.90;99.90
5346;DHT22;2695;49.444;11.054;2023-01-20T01:31:03;2.90;99.90
5346;DHT22;2695;49.444;11.054;2023-01-20T01:33:32;2.90;99.90
5346;DHT22;2695;49.444;11.054;2023-01-20T01:36:01;2.90;99.90
5346;DHT22;2695;49.444;11.054;2023-01-20T01:38:31;2.90;99.90
5346;DHT22;2695;49.444;11.054;2023-01-20T01:41:00;2.90;99.90
5346;DHT22;2695;49.444;11.054;2023-01-20T01:43:30;2.80;99.90
5346;DHT22;2695;49.444;11.054;2023-01-20T01:45:58;2.80;99.90
5346;DHT22;2695;49.444;11.054;2023-01-20T01:48:28;2.90;99.90
5346;DHT22;2695;49.444;11.054;2023-01-20T01:51:01;2.80;99.90
5346;DHT22;2695;49.444;11.054;2023-01-20T01:53:37;2.80;99.90
5346;DHT22;2695;49.444;11.054;2023-01-20T01:56:06;2.90;99.90
5346;DHT22;2695;49.444;11.054;2023-01-20T01:58:36;2.90;99.90
5346;DHT22;2695;49.444;11.054;2023-01-20T02:01:05;3.00;99.90
5346;DHT22;2695;49.444;11.054;2023-01-20T02:03:39;2.90;99.90
5346;DHT22;2695;49.444;11.054;2023-01-20T02:06:09;3.00;99.90
5346;DHT22;2695;49.444;11.054;2023-01-20T02:08:39;3.00;99.90
5346;DHT22;2695;49.444;11.054;2023-01-20T02:11:08;3.00;99.90
5346;DHT22;2695;49.444;11.054;2023-01-20T02:13:36;3.00;99.90
5346;DHT22;2695;49.444;11.054;2023-01-20T02:16:11;3.00;99.90
5346;DHT22;2695;49.444;11.054;2023-01-20T02:18:50;3.10;99.90
5346;DHT22;2695;49.444;11.054;2023-01-20T02:21:48;3.10;99.90
5346;DHT22;2695;49.444;11.054;2023-01-20T02:27:45;3.10;99.90
5346;DHT22;2695;49.444;11.054;2023-01-20T02:30:39;3.10;99.90
5346;DHT22;2695;49.444;11.054;2023-01-20T02:33:18;3.10;99.90
5346;DHT22;2695;49.444;11.054;2023-01-20T02:35:50;3.00;99.90
5346;DHT22;2695;49.444;11.054;2023-01-20T02:38:24;3.00;99.90
5346;DHT22;2695;49.444;11.054;2023-01-20T02:40:57;3.00;99.90
5346;DHT22;2695;49.444;11.054;2023-01-20T02:43:33;3.00;99.90
5346;DHT22;2695;49.444;11.054;2023-01-20T02:46:07;3.10;99.90
5346;DHT22;2695;49.444;11.054;2023-01-20T02:48:41;3.10;99.90
5346;DHT22;2695;49.444;11.054;2023-01-20T02:53:47;3.10;99.90
5346;DHT22;2695;49.444;11.054;2023-01-20T02:56:16;3.10;99.90
5346;DHT22;2695;49.444;11.054;2023-01-20T02:58:48;3.10;99.90
5346;DHT22;2695;49.444;11.054;2023-01-20T03:01:22;3.10;99.90
5346;DHT22;2695;49.444;11.054;2023-01-20T03:03:55;3.10;99.90
5346;DHT22;2695;49.444;11.054;2023-01-20T03:06:27;3.10;99.90
5346;DHT22;2695;49.444;11.054;2023-01-20T03:08:59;3.10;99.90
5346;DHT22;2695;49.444;11.054;2023-01-20T03:11:30;3.10;99.90
5346;DHT22;2695;49.444;11.054;2023-01-20T03:14:05;3.00;99.90
5346;DHT22;2695;49.444;11.054;2023-01-20T03:16:35;3.00;99.90
5346;DHT22;2695;49.444;11.054;2023-01-20T03:19:04;3.00;99.90
5346;DHT22;2695;49.444;11.054;2023-01-20T03:21:33;2.90;99.90
5346;DHT22;2695;49.444;11.054;2023-01-20T03:24:03;3.00;99.90
5346;DHT22;2695;49.444;11.054;2023-01-20T03:26:32;3.00;99.90
5346;DHT22;2695;49.444;11.054;2023-01-20T03:29:02;3.00;99.90
5346;DHT22;2695;49.444;11.054;2023-01-20T03:31:34;3.00;99.90
5346;DHT22;2695;49.444;11.054;2023-01-20T03:34:07;3.00;99.90
5346;DHT22;2695;49.444;11.054;2023-01-20T03:36:38;3.00;99.90
5346;DHT22;2695;49.444;11.054;2023-01-20T03:39:08;3.00;99.90
5346;DHT22;2695;49.444;11.054;2023-01-20T03:41:42;3.00;99.90
5346;DHT22;2695;49.444;11.054;2023-01-20T03:44:16;3.00;99.90
5346;DHT22;2695;49.444;11.054;2023-01-20T03:46:51;2.90;99.90
5346;DHT22;2695;49.444;11.054;2023-01-20T03:49:27;2.80;99.90
5346;DHT22;2695;49.444;11.054;2023-01-20T03:52:01;2.80;99.90
5346;DHT22;2695;49.444;11.054;2023-01-20T03:54:34;2.70;99.90
5346;DHT22;2695;49.444;11.054;2023-01-20T03:57:08;2.60;99.90
5346;DHT22;2695;49.444;11.054;2023-01-20T03:59:39;2.60;99.90
5346;DHT22;2695;49.444;11.054;2023-01-20T04:02:10;2.60;99.90
5346;DHT22;2695;49.444;11.054;2023-01-20T04:04:42;2.50;99.90
5346;DHT22;2695;49.444;11.054;2023-01-20T04:07:15;2.50;99.90
5346;DHT22;2695;49.444;11.054;2023-01-20T04:09:49;2.50;99.90
5346;DHT22;2695;49.444;11.054;2023-01-20T04:12:17;2.50;99.90
5346;DHT22;2695;49.444;11.054;2023-01-20T04:14:46;2.40;99.90
5346;DHT22;2695;49.444;11.054;2023-01-20T04:17:14;2.40;99.90
5346;DHT22;2695;49.444;11.054;2023-01-20T04:19:43;2.40;99.90
5346;DHT22;2695;49.444;11.054;2023-01-20T04:22:15;2.40;99.90
5346;DHT22;2695;49.444;11.054;2023-01-20T04:24:49;2.30;99.90
5346;DHT22;2695;49.444;11.054;2023-01-20T04:27:17;2.30;99.90
5346;DHT22;2695;49.444;11.054;2023-01-20T04:29:45;2.30;99.90
5346;DHT22;2695;49.444;11.054;2023-01-20T04:32:13;2.30;99.90
5346;DHT22;2695;49.444;11.054;2023-01-20T04:34:45;2.40;99.90
5346;DHT22;2695;49.444;11.054;2023-01-20T04:37:13;2.40;99.90
5346;DHT22;2695;49.444;11.054;2023-01-20T04:39:41;2.50;99.90
5346;DHT22;2695;49.444;11.054;2023-01-20T04:42:09;2.50;99.90
5346;DHT22;2695;49.444;11.054;2023-01-20T04:44:37;2.50;99.90
5346;DHT22;2695;49.444;11.054;2023-01-20T04:47:05;2.60;99.90
5346;DHT22;2695;49.444;11.054;2023-01-20T04:49:33;2.60;99.90
5346;DHT22;2695;49.444;11.054;2023-01-20T04:52:03;2.60;99.90
5346;DHT22;2695;49.444;11.054;2023-01-20T04:54:31;2.60;99.90
5346;DHT22;2695;49.444;11.054;2023-01-20T04:56:59;2.60;99.90
5346;DHT22;2695;49.444;11.054;2023-01-20T04:59:27;2.60;99.90
5346;DHT22;2695;49.444;11.054;2023-01-20T05:01:55;2.60;99.90
5346;DHT22;2695;49.444;11.054;2023-01-20T05:04:23;2.70;99.90
5346;DHT22;2695;49.444;11.054;2023-01-20T05:06:51;2.70;99.90
5346;DHT22;2695;49.444;11.054;2023-01-20T05:09:20;2.70;99.90
5346;DHT22;2695;49.444;11.054;2023-01-20T05:11:48;2.70;99.90
5346;DHT22;2695;49.444;11.054;2023-01-20T05:14:16;2.80;99.90
5346;DHT22;2695;49.444;11.054;2023-01-20T05:16:44;2.80;99.90
5346;DHT22;2695;49.444;11.054;2023-01-20T05:19:12;2.80;99.90
5346;DHT22;2695;49.444;11.054;2023-01-20T05:21:40;2.90;99.90
5346;DHT22;2695;49.444;11.054;2023-01-20T05:24:08;2.80;99.90
5346;DHT22;2695;49.444;11.054;2023-01-20T05:26:38;2.90;99.90
5346;DHT22;2695;49.444;11.054;2023-01-20T05:29:06;2.90;99.90
5346;DHT22;2695;49.444;11.054;2023-01-20T05:31:34;2.90;99.90
5346;DHT22;2695;49.444;11.054;2023-01-20T05:34:04;3.00;99.90
5346;DHT22;2695;49.444;11.054;2023-01-20T05:36:32;2.90;99.90
5346;DHT22;2695;49.444;11.054;2023-01-20T05:39:00;3.00;99.90
5346;DHT22;2695;49.444;11.054;2023-01-20T05:41:28;3.00;99.90
5346;DHT22;2695;49.444;11.054;2023-01-20T05:43:57;3.00;99.90
5346;DHT22;2695;49.444;11.054;2023-01-20T05:46:25;2.90;99.90
5346;DHT22;2695;49.444;11.054;2023-01-20T05:48:53;2.90;99.90
5346;DHT22;2695;49.444;11.054;2023-01-20T05:51:21;3.00;99.90
5346;DHT22;2695;49.444;11.054;2023-01-20T05:53:49;3.00;99.90
5346;DHT22;2695;49.444;11.054;2023-01-20T05:56:17;3.00;99.90
5346;DHT22;2695;49.444;11.054;2023-01-20T05:58:45;3.00;99.90
5346;DHT22;2695;49.444;11.054;2023-01-20T06:01:14;3.00;99.90
5346;DHT22;2695;49.444;11.054;2023-01-20T06:03:42;3.00;99.90
5346;DHT22;2695;49.444;11.054;2023-01-20T06:06:11;2.90;99.90
5346;DHT22;2695;49.444;11.054;2023-01-20T06:08:41;3.00;99.90
5346;DHT22;2695;49.444;11.054;2023-01-20T06:11:09;2.90;99.90
5346;DHT22;2695;49.444;11.054;2023-01-20T06:13:37;2.90;99.90
5346;DHT22;2695;49.444;11.054;2023-01-20T06:16:06;2.90;99.90
5346;DHT22;2695;49.444;11.054;2023-01-20T06:18:35;2.90;99.90
5346;DHT22;2695;49.444;11.054;2023-01-20T06:21:03;3.00;99.90
5346;DHT22;2695;49.444;11.054;2023-01-20T06:23:32;3.00;99.90
5346;DHT22;2695;49.444;11.054;2023-01-20T06:26:00;3.00;99.90
5346;DHT22;2695;49.444;11.054;2023-01-20T06:28:29;3.00;99.90
5346;DHT22;2695;49.444;11.054;2023-01-20T06:30:59;3.00;99.90
5346;DHT22;2695;49.444;11.054;2023-01-20T06:33:28;3.00;99.90
5346;DHT22;2695;49.444;11.054;2023-01-20T06:35:57;3.00;99.90
5346;DHT22;2695;49.444;11.054;2023-01-20T06:38:28;3.00;99.90
5346;DHT22;2695;49.444;11.054;2023-01-20T06:40:57;3.00;99.90
5346;DHT22;2695;49.444;11.054;2023-01-20T06:43:27;3.00;99.90
5346;DHT22;2695;49.444;11.054;2023-01-20T06:45:57;3.00;99.90
5346;DHT22;2695;49.444;11.054;2023-01-20T06:48:26;3.00;99.90
5346;DHT22;2695;49.444;11.054;2023-01-20T06:51:00;3.00;99.90
5346;DHT22;2695;49.444;11.054;2023-01-20T06:53:29;3.00;99.90
5346;DHT22;2695;49.444;11.054;2023-01-20T06:55:58;3.00;99.90
5346;DHT22;2695;49.444;11.054;2023-01-20T06:58:28;3.00;99.90
5346;DHT22;2695;49.444;11.054;2023-01-20T07:00:57;3.00;99.90
5346;DHT22;2695;49.444;11.054;2023-01-20T07:03:25;3.00;99.90
5346;DHT22;2695;49.444;11.054;2023-01-20T07:05:56;3.00;99.90
5346;DHT22;2695;49.444;11.054;2023-01-20T07:08:26;3.00;99.90
5346;DHT22;2695;49.444;11.054;2023-01-20T07:10:55;3.00;99.90
5346;DHT22;2695;49.444;11.054;2023-01-20T07:13:23;3.10;99.90
5346;DHT22;2695;49.444;11.054;2023-01-20T07:15:51;3.10;99.90
5346;DHT22;2695;49.444;11.054;2023-01-20T07:18:19;3.10;99.90
5346;DHT22;2695;49.444;11.054;2023-01-20T07:20:52;3.10;99.90
5346;DHT22;2695;49.444;11.054;2023-01-20T07:23:21;3.10;99.90
5346;DHT22;2695;49.444;11.054;2023-01-20T07:25:57;3.10;99.90
5346;DHT22;2695;49.444;11.054;2023-01-20T07:28:26;3.10;99.90
5346;DHT22;2695;49.444;11.054;2023-01-20T07:30:55;3.10;99.90
5346;DHT22;2695;49.444;11.054;2023-01-20T07:33:23;3.10;99.90
5346;DHT22;2695;49.444;11.054;2023-01-20T07:35:52;3.10;99.90
5346;DHT22;2695;49.444;11.054;2023-01-20T07:38:21;3.10;99.90
5346;DHT22;2695;49.444;11.054;2023-01-20T07:40:49;3.00;99.90
5346;DHT22;2695;49.444;11.054;2023-01-20T07:43:19;3.10;99.90
5346;DHT22;2695;49.444;11.054;2023-01-20T07:45:47;3.10;99.90
5346;DHT22;2695;49.444;11.054;2023-01-20T07:48:15;3.20;99.90
5346;DHT22;2695;49.444;11.054;2023-01-20T07:50:43;3.10;99.90
5346;DHT22;2695;49.444;11.054;2023-01-20T07:53:11;3.20;99.90
5346;DHT22;2695;49.444;11.054;2023-01-20T07:55:39;3.30;99.90
5346;DHT22;2695;49.444;11.054;2023-01-20T07:58:08;3.20;99.90
5346;DHT22;2695;49.444;11.054;2023-01-20T08:00:37;3.20;99.90
5346;DHT22;2695;49.444;11.054;2023-01-20T08:03:05;3.20;99.90
5346;DHT22;2695;49.444;11.054;2023-01-20T08:05:33;3.20;99.90
5346;DHT22;2695;49.444;11.054;2023-01-20T08:08:01;3.20;99.90
5346;DHT22;2695;49.444;11.054;2023-01-20T08:10:29;3.20;99.90
5346;DHT22;2695;49.444;11.054;2023-01-20T08:12:57;3.30;99.90
5346;DHT22;2695;49.444;11.054;2023-01-20T08:15:26;3.30;99.90
5346;DHT22;2695;49.444;11.054;2023-01-20T08:17:55;3.30;99.90
5346;DHT22;2695;49.444;11.054;2023-01-20T08:20:24;3.30;99.90
5346;DHT22;2695;49.444;11.054;2023-01-20T08:22:52;3.30;99.90
5346;DHT22;2695;49.444;11.054;2023-01-20T08:25:20;3.30;99.90
5346;DHT22;2695;49.444;11.054;2023-01-20T08:27:49;3.30;99.90
5346;DHT22;2695;49.444;11.054;2023-01-20T08:30:17;3.40;99.90
5346;DHT22;2695;49.444;11.054;2023-01-20T08:32:45;3.40;99.90
5346;DHT22;2695;49.444;11.054;2023-01-20T08:35:15;3.40;99.90
5346;DHT22;2695;49.444;11.054;2023-01-20T08:37:43;3.40;99.90
5346;DHT22;2695;49.444;11.054;2023-01-20T08:40:13;3.40;99.90
5346;DHT22;2695;49.444;11.054;2023-01-20T08:42:41;3.50;99.90
5346;DHT22;2695;49.444;11.054;2023-01-20T08:45:09;3.50;99.90
5346;DHT22;2695;49.444;11.054;2023-01-20T08:47:40;3.50;99.90
5346;DHT22;2695;49.444;11.054;2023-01-20T08:50:12;3.60;99.90
5346;DHT22;2695;49.444;11.054;2023-01-20T08:52:42;3.60;99.90
5346;DHT22;2695;49.444;11.054;2023-01-20T08:55:10;3.60;99.90
5346;DHT22;2695;49.444;11.054;2023-01-20T08:57:39;3.70;99.90
5346;DHT22;2695;49.444;11.054;2023-01-20T09:00:10;3.60;99.90
5346;DHT22;2695;49.444;11.054;2023-01-20T09:02:40;3.60;99.90
5346;DHT22;2695;49.444;11.054;2023-01-20T09:05:09;3.60;99.90
5346;DHT22;2695;49.444;11.054;2023-01-20T09:07:37;3.60;99.90
5346;DHT22;2695;49.444;11.054;2023-01-20T09:10:08;3.60;99.90
5346;DHT22;2695;49.444;11.054;2023-01-20T09:12:37;3.60;99.90
5346;DHT22;2695;49.444;11.054;2023-01-20T09:15:06;3.70;99.90
5346;DHT22;2695;49.444;11.054;2023-01-20T09:17:34;3.80;99.90
5346;DHT22;2695;49.444;11.054;2023-01-20T09:20:03;3.90;99.90
5346;DHT22;2695;49.444;11.054;2023-01-20T09:22:32;4.10;99.90
5346;DHT22;2695;49.444;11.054;2023-01-20T09:25:00;4.10;99.90
5346;DHT22;2695;49.444;11.054;2023-01-20T09:27:31;4.20;99.90
5346;DHT22;2695;49.444;11.054;2023-01-20T09:29:59;4.30;99.90
5346;DHT22;2695;49.444;11.054;2023-01-20T09:32:28;4.30;99.90
5346;DHT22;2695;49.444;11.054;2023-01-20T09:34:56;4.50;99.90
5346;DHT22;2695;49.444;11.054;2023-01-20T09:37:24;4.40;99.90
5346;DHT22;2695;49.444;11.054;2023-01-20T09:40:15;4.40;99.90
5346;DHT22;2695;49.444;11.054;2023-01-20T09:43:12;4.40;99.90
5346;DHT22;2695;49.444;11.054;2023-01-20T09:46:06;4.70;99.90
5346;DHT22;2695;49.444;11.054;2023-01-20T09:48:41;4.50;99.90
5346;DHT22;2695;49.444;11.054;2023-01-20T09:51:33;4.40;99.90
5346;DHT22;2695;49.444;11.054;2023-01-20T09:54:25;4.30;99.90
5346;DHT22;2695;49.444;11.054;2023-01-20T09:56:56;4.20;99.90
5346;DHT22;2695;49.444;11.054;2023-01-20T09:59:32;4.20;99.90
5346;DHT22;2695;49.444;11.054;2023-01-20T10:02:06;4.50;99.90
5346;DHT22;2695;49.444;11.054;2023-01-20T10:04:40;4.20;99.90
5346;DHT22;2695;49.444;11.054;2023-01-20T10:07:11;4.20;99.90
5346;DHT22;2695;49.444;11.054;2023-01-20T10:09:44;4.30;99.90
5346;DHT22;2695;49.444;11.054;2023-01-20T10:12:20;4.30;99.90
5346;DHT22;2695;49.444;11.054;2023-01-20T10:14:56;4.40;99.90
5346;DHT22;2695;49.444;11.054;2023-01-20T10:17:29;4.60;99.90
5346;DHT22;2695;49.444;11.054;2023-01-20T10:20:02;4.40;99.90
5346;DHT22;2695;49.444;11.054;2023-01-20T10:22:38;4.70;99.90
5346;DHT22;2695;49.444;11.054;2023-01-20T10:25:11;4.80;99.90
5346;DHT22;2695;49.444;11.054;2023-01-20T10:27:45;5.00;99.90
5346;DHT22;2695;49.444;11.054;2023-01-20T10:30:22;5.70;99.90
5346;DHT22;2695;49.444;11.054;2023-01-20T10:32:54;4.80;99.90
5346;DHT22;2695;49.444;11.054;2023-01-20T10:35:27;4.80;99.90
5346;DHT22;2695;49.444;11.054;2023-01-20T10:37:55;4.80;99.90
5346;DHT22;2695;49.444;11.054;2023-01-20T10:40:31;5.00;99.90
5346;DHT22;2695;49.444;11.054;2023-01-20T10:43:09;4.70;99.90
5346;DHT22;2695;49.444;11.054;2023-01-20T10:46:00;4.70;99.90
5346;DHT22;2695;49.444;11.054;2023-01-20T10:48:49;4.80;99.90
5346;DHT22;2695;49.444;11.054;2023-01-20T10:51:23;4.90;99.90
5346;DHT22;2695;49.444;11.054;2023-01-20T10:54:02;5.00;99.90
5346;DHT22;2695;49.444;11.054;2023-01-20T10:56:41;5.10;99.90
5346;DHT22;2695;49.444;11.054;2023-01-20T10:59:13;5.30;99.90
5346;DHT22;2695;49.444;11.054;2023-01-20T11:01:47;5.50;99.90
5346;DHT22;2695;49.444;11.054;2023-01-20T11:04:32;5.70;99.90
5346;DHT22;2695;49.444;11.054;2023-01-20T11:07:01;5.90;99.90
5346;DHT22;2695;49.444;11.054;2023-01-20T11:09:35;6.00;99.90
5346;DHT22;2695;49.444;11.054;2023-01-20T11:12:11;6.20;99.90
5346;DHT22;2695;49.444;11.054;2023-01-20T11:14:40;6.30;99.90
5346;DHT22;2695;49.444;11.054;2023-01-20T11:17:14;6.40;99.90
5346;DHT22;2695;49.444;11.054;2023-01-20T11:19:50;7.70;99.90
5346;DHT22;2695;49.444;11.054;2023-01-20T11:22:25;6.40;99.90
5346;DHT22;2695;49.444;11.054;2023-01-20T11:24:56;6.40;99.90
5346;DHT22;2695;49.444;11.054;2023-01-20T11:27:27;6.40;99.90
5346;DHT22;2695;49.444;11.054;2023-01-20T11:30:02;6.30;99.90
5346;DHT22;2695;49.444;11.054;2023-01-20T11:32:34;6.30;99.90
5346;DHT22;2695;49.444;11.054;2023-01-20T11:35:20;6.20;99.90
5346;DHT22;2695;49.444;11.054;2023-01-20T11:37:48;6.10;99.90
5346;DHT22;2695;49.444;11.054;2023-01-20T11:40:20;6.50;99.90
5346;DHT22;2695;49.444;11.054;2023-01-20T11:42:50;6.00;99.90
5346;DHT22;2695;49.444;11.054;2023-01-20T11:45:28;6.10;99.90
5346;DHT22;2695;49.444;11.054;2023-01-20T11:48:05;5.80;99.90
5346;DHT22;2695;49.444;11.054;2023-01-20T11:50:38;5.80;99.90
5346;DHT22;2695;49.444;11.054;2023-01-20T11:53:28;5.80;99.90
5346;DHT22;2695;49.444;11.054;2023-01-20T11:55:59;5.90;99.90
5346;DHT22;2695;49.444;11.054;2023-01-20T11:58:31;5.90;99.90
5346;DHT22;2695;49.444;11.054;2023-01-20T12:01:03;6.00;99.90
5346;DHT22;2695;49.444;11.054;2023-01-20T12:04:04;6.00;99.90
5346;DHT22;2695;49.444;11.054;2023-01-20T12:06:44;6.10;99.90
5346;DHT22;2695;49.444;11.054;2023-01-20T12:09:17;6.20;99.90
5346;DHT22;2695;49.444;11.054;2023-01-20T12:11:54;6.20;99.90
5346;DHT22;2695;49.444;11.054;2023-01-20T12:14:41;5.20;99.90
5346;DHT22;2695;49.444;11.054;2023-01-20T12:17:28;6.30;99.90
5346;DHT22;2695;49.444;11.054;2023-01-20T12:20:09;6.30;99.90
5346;DHT22;2695;49.444;11.054;2023-01-20T12:22:43;6.30;99.90
5346;DHT22;2695;49.444;11.054;2023-01-20T12:25:19;6.20;99.90
5346;DHT22;2695;49.444;11.054;2023-01-20T12:27:50;6.10;99.90
5346;DHT22;2695;49.444;11.054;2023-01-20T12:30:43;6.00;99.90
5346;DHT22;2695;49.444;11.054;2023-01-20T12:33:19;5.90;99.90
5346;DHT22;2695;49.444;11.054;2023-01-20T12:39:19;5.70;99.90
5346;DHT22;2695;49.444;11.054;2023-01-20T12:42:05;5.60;99.90
5346;DHT22;2695;49.444;11.054;2023-01-20T12:44:44;5.60;99.90
5346;DHT22;2695;49.444;11.054;2023-01-20T12:47:22;5.60;99.90
5346;DHT22;2695;49.444;11.054;2023-01-20T12:50:09;5.60;99.90
5346;DHT22;2695;49.444;11.054;2023-01-20T12:52:51;5.60;99.90
5346;DHT22;2695;49.444;11.054;2023-01-20T12:55:27;5.50;99.90
5346;DHT22;2695;49.444;11.054;2023-01-20T12:58:06;5.40;99.90
5346;DHT22;2695;49.444;11.054;2023-01-20T13:03:47;4.70;99.90
5346;DHT22;2695;49.444;11.054;2023-01-20T13:06:48;5.40;99.90
5346;DHT22;2695;49.444;11.054;2023-01-20T13:09:35;5.00;99.90
5346;DHT22;2695;49.444;11.054;2023-01-20T13:12:33;5.10;99.90
5346;DHT22;2695;49.444;11.054;2023-01-20T13:15:13;4.80;99.90
5346;DHT22;2695;49.444;11.054;2023-01-20T13:18:01;4.80;99.90
5346;DHT22;2695;49.444;11.054;2023-01-20T13:20:33;4.80;99.90
5346;DHT22;2695;49.444;11.054;2023-01-20T13:23:04;5.30;99.90
5346;DHT22;2695;49.444;11.054;2023-01-20T13:25:34;4.90;99.90
5346;DHT22;2695;49.444;11.054;2023-01-20T13:28:03;4.90;99.90
5346;DHT22;2695;49.444;11.054;2023-01-20T13:30:39;5.00;99.90
5346;DHT22;2695;49.444;11.054;2023-01-20T13:33:17;5.00;99.90
5346;DHT22;2695;49.444;11.054;2023-01-20T13:35:53;4.90;99.90
5346;DHT22;2695;49.444;11.054;2023-01-20T13:38:23;4.90;99.90
5346;DHT22;2695;49.444;11.054;2023-01-20T13:40:56;4.70;99.90
5346;DHT22;2695;49.444;11.054;2023-01-20T13:43:44;4.70;99.90
5346;DHT22;2695;49.444;11.054;2023-01-20T13:46:36;4.90;99.90
5346;DHT22;2695;49.444;11.054;2023-01-20T13:52:02;4.50;99.90
5346;DHT22;2695;49.444;11.054;2023-01-20T13:54:41;4.40;99.90
5346;DHT22;2695;49.444;11.054;2023-01-20T13:57:43;4.50;99.90
5346;DHT22;2695;49.444;11.054;2023-01-20T14:00:17;4.50;99.90
5346;DHT22;2695;49.444;11.054;2023-01-20T14:02:47;4.60;99.90
5346;DHT22;2695;49.444;11.054;2023-01-20T14:05:29;4.60;99.90
5346;DHT22;2695;49.444;11.054;2023-01-20T14:07:58;4.10;99.90
5346;DHT22;2695;49.444;11.054;2023-01-20T14:10:27;4.70;99.90
5346;DHT22;2695;49.444;11.054;2023-01-20T14:12:57;4.80;99.90
5346;DHT22;2695;49.444;11.054;2023-01-20T14:15:35;5.20;99.90
5346;DHT22;2695;49.444;11.054;2023-01-20T14:18:10;4.80;99.90
5346;DHT22;2695;49.444;11.054;2023-01-20T14:20:59;4.80;99.90
5346;DHT22;2695;49.444;11.054;2023-01-20T14:23:35;4.80;99.90
5346;DHT22;2695;49.444;11.054;2023-01-20T14:26:09;4.80;99.90
5346;DHT22;2695;49.444;11.054;2023-01-20T14:28:48;5.00;99.90
5346;DHT22;2695;49.444;11.054;2023-01-20T14:31:29;4.80;99.90
5346;DHT22;2695;49.444;11.054;2023-01-20T14:34:24;5.00;99.90
5346;DHT22;2695;49.444;11.054;2023-01-20T14:36:55;4.80;99.90
5346;DHT22;2695;49.444;11.054;2023-01-20T14:39:25;4.90;99.90
5346;DHT22;2695;49.444;11.054;2023-01-20T14:41:55;4.80;99.90
5346;DHT22;2695;49.444;11.054;2023-01-20T14:44:26;4.70;99.90
5346;DHT22;2695;49.444;11.054;2023-01-20T14:46:56;5.20;99.90
5346;DHT22;2695;49.444;11.054;2023-01-20T14:49:29;5.50;99.90
5346;DHT22;2695;49.444;11.054;2023-01-20T14:52:00;4.70;99.90
5346;DHT22;2695;49.444;11.054;2023-01-20T14:54:33;4.60;99.90
5346;DHT22;2695;49.444;11.054;2023-01-20T14:57:18;5.00;99.90
5346;DHT22;2695;49.444;11.054;2023-01-20T15:00:03;4.50;99.90
5346;DHT22;2695;49.444;11.054;2023-01-20T15:02:33;5.40;99.90
5346;DHT22;2695;49.444;11.054;2023-01-20T15:05:21;5.00;99.90
5346;DHT22;2695;49.444;11.054;2023-01-20T15:08:14;4.30;99.90
5346;DHT22;2695;49.444;11.054;2023-01-20T15:10:44;5.00;99.90
5346;DHT22;2695;49.444;11.054;2023-01-20T15:13:23;4.20;99.90
5346;DHT22;2695;49.444;11.054;2023-01-20T15:16:05;4.30;99.90
5346;DHT22;2695;49.444;11.054;2023-01-20T15:18:33;4.20;99.90
5346;DHT22;2695;49.444;11.054;2023-01-20T15:21:16;4.10;99.90
5346;DHT22;2695;49.444;11.054;2023-01-20T15:23:49;4.10;99.90
5346;DHT22;2695;49.444;11.054;2023-01-20T15:26:24;4.10;99.90
5346;DHT22;2695;49.444;11.054;2023-01-20T15:28:54;4.30;99.90
5346;DHT22;2695;49.444;11.054;2023-01-20T15:31:23;3.90;99.90
5346;DHT22;2695;49.444;11.054;2023-01-20T15:33:52;3.90;99.90
5346;DHT22;2695;49.444;11.054;2023-01-20T15:36:22;3.80;99.90
5346;DHT22;2695;49.444;11.054;2023-01-20T15:38:53;3.60;99.90
5346;DHT22;2695;49.444;11.054;2023-01-20T15:41:22;4.10;99.90
5346;DHT22;2695;49.444;11.054;2023-01-20T15:43:51;3.60;99.90
5346;DHT22;2695;49.444;11.054;2023-01-20T15:46:19;3.60;99.90
5346;DHT22;2695;49.444;11.054;2023-01-20T15:48:49;3.50;99.90
5346;DHT22;2695;49.444;11.054;2023-01-20T15:51:18;3.50;99.90
5346;DHT22;2695;49.444;11.054;2023-01-20T15:53:47;3.80;99.90
5346;DHT22;2695;49.444;11.054;2023-01-20T15:56:18;3.20;99.90
5346;DHT22;2695;49.444;11.054;2023-01-20T15:58:48;3.70;99.90
5346;DHT22;2695;49.444;11.054;2023-01-20T16:01:19;3.00;99.90
5346;DHT22;2695;49.444;11.054;2023-01-20T16:03:51;2.90;99.90
5346;DHT22;2695;49.444;11.054;2023-01-20T16:06:24;2.80;99.90
5346;DHT22;2695;49.444;11.054;2023-01-20T16:08:53;2.80;99.90
5346;DHT22;2695;49.444;11.054;2023-01-20T16:11:22;2.70;99.90
5346;DHT22;2695;49.444;11.054;2023-01-20T16:13:50;2.70;99.90
5346;DHT22;2695;49.444;11.054;2023-01-20T16:16:21;2.60;99.90
5346;DHT22;2695;49.444;11.054;2023-01-20T16:18:51;2.60;99.90
5346;DHT22;2695;49.444;11.054;2023-01-20T16:21:19;2.60;99.90
5346;DHT22;2695;49.444;11.054;2023-01-20T16:23:48;2.60;99.90
5346;DHT22;2695;49.444;11.054;2023-01-20T16:26:18;2.60;99.90
5346;DHT22;2695;49.444;11.054;2023-01-20T16:28:48;2.60;99.90
5346;DHT22;2695;49.444;11.054;2023-01-20T16:31:17;2.50;99.90
5346;DHT22;2695;49.444;11.054;2023-01-20T16:33:46;2.60;99.90
5346;DHT22;2695;49.444;11.054;2023-01-20T16:36:17;2.50;99.90
5346;DHT22;2695;49.444;11.054;2023-01-20T16:38:47;2.50;99.90
5346;DHT22;2695;49.444;11.054;2023-01-20T16:41:18;2.40;99.90
5346;DHT22;2695;49.444;11.054;2023-01-20T16:43:47;2.30;99.90
5346;DHT22;2695;49.444;11.054;2023-01-20T16:46:17;2.40;99.90
5346;DHT22;2695;49.444;11.054;2023-01-20T16:48:46;2.30;99.90
5346;DHT22;2695;49.444;11.054;2023-01-20T16:51:17;2.20;99.90